Ellicott, NY

8:28 PM EDT on October 20, 2019 (GMT -0400)
Ellicott @ Scherff Rds | | Change Station

Elev 886 ft 42.74 °N, 78.74 °W | Updated 9 seconds ago

Clear
Clear
48.2 °F
Feels Like 48 °F
N
0
Wind Variable Wind from SE
Gusts 0.0 mph

Today
High -- | Low -- °F
--% Chance of Precip.
Yesterday
High -- | Low -- °F
Precip. -- in
Pressure 29.96 in
Visibility 10.0 miles
Clouds Few 25000 ft
Windchill 48 °F
Dew Point 47 °F
Humidity 95%
Rainfall 0.00 in
Snow Depth Not available.
7:33 AM 6:24 PM
Waning Gibbous, 56% visible
METAR KBUF 202354Z 03004KT 10SM FEW250 12/07 A2995 RMK AO2 SLP146 T01170067 10189 20117 53009
Pressure 29.96 in
Visibility 10.0 miles
Clouds Few 25000 ft
Windchill 48 °F
Dew Point 47 °F
Humidity 95%
Rainfall 0.00 in
Snow Depth Not available.
7:33 AM 6:24 PM
Waning Gibbous, 56% visible
METAR KBUF 202354Z 03004KT 10SM FEW250 12/07 A2995 RMK AO2 SLP146 T01170067 10189 20117 53009

Get Severe Weather Alerts

Thanks for signing up!

Be on the lookout for a verification email in your inbox.

You'll start receiving the daily forecast at 6 AM.

×

10-Day Weather Forecast

Almanac

Astronomy

Oct. 20, 2019 Rise Set
Actual Time
Civil Twilight
Nautical Twilight
Astronomical Twilight
Moon
Length of Visible Light
Length of Day
Tomorrow will be .
, % of the Moon is Illuminated

Today's Extremes

State Highs State Lows

Community

WunderPhotos

Category 6

Welcome to Category 6. This is the collective home for Weather Underground's featured writeups by Dr. Jeff Masters (right), Bob Henson (left), Chris Burt, and other regular contributors.

Nearby

Air Quality

  Air Quality AQ Index Pollutant
Not available.

Snow Depth

Station Depth Elevation

Earthquake Activity

City Distance Mag. Time & Date
Minimum magnitude displayed is 2.5.

Coastal Water Temperatures

Place Temperature

Stations

Nearby Weather Stations

Station Location Temp. Windchill Dew Point Humidity Wind Precip. Elev Updated Type
                   

Watches & Warnings

There are currently no watches in effect.